createdAt,value
2018-05-13T00:00:08.852Z,69.12
2018-05-13T00:02:10.378Z,69.02
2018-05-13T00:04:12.197Z,69.31
2018-05-13T00:06:13.834Z,69.51
2018-05-13T00:08:15.376Z,69.12
2018-05-13T00:10:17.205Z,69.41
2018-05-13T00:12:18.910Z,69.57
2018-05-13T00:14:20.622Z,69.41
2018-05-13T00:16:22.167Z,69.28
2018-05-13T00:18:23.909Z,70.05
2018-05-13T00:20:25.598Z,70.24
2018-05-13T00:22:27.125Z,70.15
2018-05-13T00:24:29.346Z,70.53
2018-05-13T00:26:31.047Z,70.92
2018-05-13T00:28:33.169Z,70.92
2018-05-13T00:30:35.354Z,70.92
2018-05-13T00:32:37.112Z,70.82
2018-05-13T00:34:38.865Z,70.62
2018-05-13T00:36:40.397Z,70.62
2018-05-13T00:38:41.945Z,71.01
2018-05-13T00:40:43.455Z,71.11
2018-05-13T00:42:45.637Z,71.20
2018-05-13T00:44:47.456Z,71.20
2018-05-13T00:46:48.938Z,71.36
2018-05-13T00:48:50.364Z,71.55
2018-05-13T00:50:51.926Z,71.55
2018-05-13T00:52:54.101Z,71.84
2018-05-13T00:54:55.825Z,71.65
2018-05-13T00:56:57.567Z,71.65
2018-05-13T00:58:59.245Z,71.55
2018-05-13T01:01:00.751Z,71.84
2018-05-13T01:03:02.194Z,72.13
2018-05-13T01:05:03.764Z,71.94
2018-05-13T01:07:05.191Z,72.52
2018-05-13T01:09:06.655Z,72.23
2018-05-13T01:11:08.786Z,72.09
2018-05-13T01:13:10.997Z,72.09
2018-05-13T01:15:12.795Z,72.58
2018-05-13T01:17:14.551Z,72.58
2018-05-13T01:19:16.237Z,73.15
2018-05-13T01:21:18.491Z,73.35
2018-05-13T01:23:20.716Z,73.25
2018-05-13T01:25:22.442Z,73.44
2018-05-13T01:27:24.607Z,73.15
2018-05-13T01:29:26.437Z,73.28
2018-05-13T01:31:28.652Z,73.25
2018-05-13T01:33:30.890Z,73.44
2018-05-13T01:35:32.705Z,73.15
2018-05-13T01:37:34.354Z,73.35
2018-05-13T01:39:35.985Z,73.63
2018-05-13T01:41:38.135Z,73.63
2018-05-13T01:43:39.932Z,73.35
2018-05-13T01:45:41.795Z,73.44
2018-05-13T01:47:43.506Z,73.73
2018-05-13T01:49:45.259Z,73.54
2018-05-13T01:51:46.830Z,74.11
2018-05-13T01:53:48.585Z,73.73
2018-05-13T01:55:50.322Z,73.73
2018-05-13T01:57:52.034Z,73.44
2018-05-13T01:59:53.698Z,73.73
2018-05-13T02:01:55.440Z,73.92
2018-05-13T02:03:57.188Z,73.92
2018-05-13T02:05:58.853Z,73.92
2018-05-13T02:08:00.274Z,74.50
2018-05-13T02:10:01.955Z,73.92
2018-05-13T02:12:03.429Z,74.30
2018-05-13T02:14:05.153Z,74.60
2018-05-13T02:16:06.965Z,74.60
2018-05-13T02:18:08.582Z,74.69
2018-05-13T02:20:10.384Z,74.30
2018-05-13T02:22:12.097Z,74.69
2018-05-13T02:24:14.366Z,74.79
2018-05-13T02:26:16.580Z,74.69
2018-05-13T02:28:18.053Z,75.17
2018-05-13T02:30:19.946Z,74.98
2018-05-13T02:32:21.746Z,75.17
2018-05-13T02:34:23.405Z,75.17
2018-05-13T02:36:24.966Z,75.46
2018-05-13T02:38:26.817Z,74.69
2018-05-13T02:40:28.997Z,75.13
2018-05-13T02:42:31.072Z,75.23
2018-05-13T02:44:32.700Z,75.04
2018-05-13T02:46:34.411Z,75.04
2018-05-13T02:48:36.646Z,75.13
2018-05-13T02:50:38.402Z,75.27
2018-05-13T02:52:39.963Z,75.13
2018-05-13T02:54:41.578Z,75.52
2018-05-13T02:56:43.118Z,75.32
2018-05-13T02:58:45.368Z,75.23
2018-05-13T03:00:47.151Z,75.32
2018-05-13T03:02:48.882Z,75.23
2018-05-13T03:04:50.599Z,76.00
2018-05-13T03:06:52.419Z,76.00
2018-05-13T03:08:53.930Z,76.19
2018-05-13T03:10:56.078Z,75.42
2018-05-13T03:12:57.750Z,75.81
2018-05-13T03:14:59.254Z,76.00
2018-05-13T03:17:01.511Z,75.81
2018-05-13T03:19:03.237Z,75.81
2018-05-13T03:21:04.744Z,76.19
2018-05-13T03:23:06.470Z,76.29
2018-05-13T03:25:07.954Z,76.09
2018-05-13T03:27:10.252Z,76.19
2018-05-13T03:29:11.949Z,76.29
2018-05-13T03:31:13.438Z,76.39
2018-05-13T03:33:15.154Z,76.00
2018-05-13T03:35:16.958Z,75.81
2018-05-13T03:37:18.692Z,75.81
2018-05-13T03:39:21.026Z,76.00
2018-05-13T03:41:23.189Z,76.39
2018-05-13T03:43:24.944Z,76.39
2018-05-13T03:45:26.705Z,76.86
2018-05-13T03:47:28.371Z,76.77
2018-05-13T03:49:30.470Z,77.25
2018-05-13T03:51:32.289Z,77.25
2018-05-13T03:53:33.836Z,77.44
2018-05-13T03:55:36.042Z,77.25
2018-05-13T03:57:37.685Z,77.92
2018-05-13T03:59:39.218Z,78.02
2018-05-13T04:01:40.880Z,77.73
2018-05-13T04:03:42.368Z,78.02
2018-05-13T04:05:44.145Z,77.63
2018-05-13T04:07:45.648Z,77.63
2018-05-13T04:09:47.390Z,77.96
2018-05-13T04:11:50.215Z,77.73
2018-05-13T04:13:51.693Z,78.44
2018-05-13T04:15:53.782Z,78.69
2018-05-13T04:17:55.831Z,79.50
2018-05-13T04:19:57.475Z,78.63
2018-05-13T04:21:58.968Z,79.30
2018-05-13T04:24:00.667Z,79.30
2018-05-13T04:26:02.122Z,79.30
2018-05-13T04:28:03.547Z,79.30
2018-05-13T04:30:05.193Z,79.40
2018-05-13T04:32:06.643Z,80.36
2018-05-13T04:34:08.344Z,81.23
2018-05-13T04:36:10.066Z,80.84
2018-05-13T04:38:52.496Z,80.84
2018-05-13T04:40:53.990Z,81.04
2018-05-13T04:42:55.413Z,81.32
2018-05-13T04:44:56.975Z,82.05
2018-05-13T04:46:58.411Z,82.82
2018-05-13T04:48:59.880Z,84.17
2018-05-13T04:51:01.324Z,84.26
2018-05-13T04:53:03.713Z,84.07
2018-05-13T04:55:06.081Z,84.64
2018-05-13T04:57:07.792Z,85.22
2018-05-13T04:59:10.227Z,85.22
2018-05-13T05:01:12.487Z,85.07
2018-05-13T05:03:14.155Z,85.17
2018-05-13T05:05:15.587Z,84.88
2018-05-13T05:07:17.166Z,85.07
2018-05-13T05:09:18.785Z,84.88
2018-05-13T05:11:21.238Z,85.84
2018-05-13T05:13:22.917Z,85.94
2018-05-13T05:15:24.437Z,85.84
2018-05-13T05:17:25.984Z,85.84
2018-05-13T05:19:28.368Z,86.32
2018-05-13T05:21:29.961Z,86.99
2018-05-13T05:23:31.666Z,87.48
2018-05-13T05:25:33.865Z,88.10
2018-05-13T05:27:35.574Z,88.30
2018-05-13T05:29:37.446Z,89.16
2018-05-13T05:31:39.225Z,89.74
2018-05-13T05:33:41.475Z,89.74
2018-05-13T05:35:43.336Z,89.54
2018-05-13T05:37:44.816Z,89.78
2018-05-13T05:39:46.562Z,89.11
2018-05-13T05:41:48.351Z,89.30
2018-05-13T05:43:50.536Z,88.63
2018-05-13T05:45:52.195Z,88.53
2018-05-13T05:47:53.980Z,89.30
2018-05-13T05:49:55.530Z,89.11
2018-05-13T05:51:57.088Z,88.96
2018-05-13T05:53:58.834Z,89.21
2018-05-13T05:56:01.190Z,89.30
2018-05-13T05:58:02.765Z,89.06
2018-05-13T06:00:04.434Z,89.06
2018-05-13T06:02:05.939Z,88.67
2018-05-13T06:04:08.180Z,88.87
2018-05-13T06:06:10.343Z,88.57
2018-05-13T06:08:12.189Z,88.19
2018-05-13T06:10:14.387Z,88.10
2018-05-13T06:12:16.065Z,87.71
2018-05-13T06:14:17.747Z,88.10
2018-05-13T06:16:19.280Z,88.00
2018-05-13T06:18:21.000Z,89.06
2018-05-13T06:20:22.673Z,88.48
2018-05-13T06:22:24.907Z,89.15
2018-05-13T06:24:26.577Z,90.02
2018-05-13T06:26:28.174Z,89.78
2018-05-13T06:28:29.699Z,88.76
2018-05-13T06:30:31.414Z,85.63
2018-05-13T06:32:33.641Z,85.14
2018-05-13T06:34:35.345Z,84.95
2018-05-13T06:36:36.835Z,82.43
2018-05-13T06:38:38.324Z,79.66
2018-05-13T06:40:39.839Z,74.49
2018-05-13T06:42:41.287Z,66.66
2018-05-13T06:44:42.728Z,62.01
2018-05-13T06:46:44.869Z,58.86
2018-05-13T06:48:46.384Z,59.97
2018-05-13T06:50:48.459Z,62.04
2018-05-13T06:52:50.193Z,63.56
2018-05-13T06:54:51.979Z,63.85
2018-05-13T06:56:53.443Z,64.53
2018-05-13T06:58:54.907Z,63.49
2018-05-13T07:00:57.237Z,62.91
2018-05-13T07:02:59.436Z,59.76
2018-05-13T07:05:00.977Z,59.61
2018-05-13T07:07:02.450Z,60.68
2018-05-13T07:09:04.192Z,63.24
2018-05-13T07:11:06.044Z,65.72
2018-05-13T07:13:07.686Z,67.53
2018-05-13T07:15:09.202Z,67.88
2018-05-13T07:17:10.996Z,69.78
2018-05-13T07:19:12.687Z,69.68
2018-05-13T07:21:14.214Z,69.59
2018-05-13T07:23:16.042Z,70.90
2018-05-13T07:25:18.380Z,72.94
2018-05-13T07:27:21.506Z,74.48
2018-05-13T07:29:22.989Z,75.70
2018-05-13T07:31:24.487Z,75.79
2018-05-13T07:33:25.997Z,75.41
2018-05-13T07:35:28.397Z,74.35
2018-05-13T07:37:30.852Z,75.12
2018-05-13T07:39:32.664Z,76.15
2018-05-13T07:41:34.729Z,76.82
2018-05-13T07:43:36.637Z,77.78
2018-05-13T07:45:39.830Z,80.58
2018-05-13T07:47:42.588Z,81.60
2018-05-13T07:49:44.348Z,80.93
2018-05-13T07:51:45.968Z,79.58
2018-05-13T07:53:47.477Z,79.43
2018-05-13T07:55:49.926Z,80.78
2018-05-13T07:57:51.800Z,80.83
2018-05-13T07:59:54.376Z,78.71
2018-05-13T08:01:56.102Z,80.87
2018-05-13T08:03:57.760Z,80.10
2018-05-13T08:05:59.541Z,80.97
2018-05-13T08:08:01.536Z,83.09
2018-05-13T08:10:03.177Z,80.30
2018-05-13T08:12:05.659Z,80.33
2018-05-13T08:14:08.020Z,77.73
2018-05-13T08:16:09.678Z,76.86
2018-05-13T08:18:13.447Z,77.53
2018-05-13T08:20:15.132Z,77.76
2018-05-13T08:22:16.855Z,77.19
2018-05-13T08:24:18.950Z,75.84
2018-05-13T08:26:20.525Z,74.00
2018-05-13T08:28:22.275Z,74.81
2018-05-13T08:30:23.764Z,75.00
2018-05-13T08:32:25.255Z,75.43
2018-05-13T08:34:26.957Z,77.55
2018-05-13T08:36:28.623Z,78.13
2018-05-13T08:38:30.966Z,77.55
2018-05-13T08:40:32.332Z,76.01
2018-05-13T08:42:34.653Z,74.07
2018-05-13T08:44:36.309Z,74.01
2018-05-13T08:46:38.138Z,70.82
2018-05-13T08:48:39.753Z,69.46
2018-05-13T08:50:41.492Z,73.24
2018-05-13T08:52:43.030Z,73.08
2018-05-13T08:54:44.727Z,68.59
2018-05-13T08:56:47.080Z,71.01
2018-05-13T08:58:48.868Z,72.56
2018-05-13T09:00:50.728Z,70.92
2018-05-13T09:02:52.437Z,72.89
2018-05-13T09:04:53.884Z,69.89
2018-05-13T09:06:55.679Z,72.83
2018-05-13T09:08:57.152Z,72.24
2018-05-13T09:10:58.984Z,69.63
2018-05-13T09:13:00.818Z,71.50
2018-05-13T09:15:03.174Z,71.50
2018-05-13T09:17:04.830Z,68.27
2018-05-13T09:19:06.524Z,64.92
2018-05-13T09:21:08.763Z,69.76
2018-05-13T09:23:10.272Z,68.50
2018-05-13T09:25:12.165Z,65.40
2018-05-13T09:27:13.905Z,64.65
2018-05-13T09:29:16.240Z,64.72
2018-05-13T09:31:17.723Z,67.14
2018-05-13T09:33:20.310Z,69.70
2018-05-13T09:35:21.826Z,68.24
2018-05-13T09:37:24.182Z,67.31
2018-05-13T09:39:25.909Z,67.99
2018-05-13T09:41:27.386Z,66.44
2018-05-13T09:43:28.867Z,66.47
2018-05-13T09:45:30.522Z,64.14
2018-05-13T09:47:32.287Z,60.52
2018-05-13T09:49:34.072Z,65.89
2018-05-13T09:51:35.883Z,64.92
2018-05-13T09:53:37.382Z,64.72
2018-05-13T09:55:39.104Z,64.14
2018-05-13T09:57:40.780Z,62.52
2018-05-13T09:59:42.266Z,63.59
2018-05-13T10:01:44.134Z,59.19
2018-05-13T10:03:45.761Z,63.36
2018-05-13T10:05:47.534Z,63.95
2018-05-13T10:07:49.243Z,60.25
2018-05-13T10:09:50.792Z,58.15
2018-05-13T10:11:52.416Z,59.70
2018-05-13T10:13:54.185Z,58.41
2018-05-13T10:15:56.106Z,62.39
2018-05-13T10:17:57.874Z,62.23
2018-05-13T10:19:59.408Z,62.35
2018-05-13T10:22:00.994Z,60.41
2018-05-13T10:24:02.529Z,56.92
2018-05-13T10:26:04.078Z,57.11
2018-05-13T10:28:05.804Z,58.47
2018-05-13T10:30:07.292Z,59.34
2018-05-13T10:32:08.942Z,58.57
2018-05-13T10:34:10.504Z,55.75
2018-05-13T10:36:12.535Z,55.14
2018-05-13T10:38:55.032Z,58.08
2018-05-13T10:40:56.632Z,58.57
2018-05-13T10:42:58.141Z,54.78
2018-05-13T10:44:59.688Z,56.75
2018-05-13T10:47:01.338Z,55.46
2018-05-13T10:49:03.116Z,57.43
2018-05-13T10:51:04.658Z,55.94
2018-05-13T10:53:06.149Z,53.39
2018-05-13T10:55:07.637Z,56.40
2018-05-13T10:57:09.149Z,56.96
2018-05-13T10:59:10.676Z,55.99
2018-05-13T11:01:12.654Z,57.44
2018-05-13T11:03:14.566Z,59.00
2018-05-13T11:05:16.322Z,55.53
2018-05-13T11:07:18.176Z,55.53
2018-05-13T11:09:19.868Z,54.66
2018-05-13T11:11:22.189Z,56.24
2018-05-13T11:13:25.020Z,56.46
2018-05-13T11:15:26.626Z,54.13
2018-05-13T11:17:28.295Z,56.29
2018-05-13T11:19:29.987Z,58.07
2018-05-13T11:21:31.823Z,55.71
2018-05-13T11:23:33.303Z,55.64
2018-05-13T11:25:35.004Z,54.86
2018-05-13T11:27:36.662Z,53.59
2018-05-13T11:29:38.205Z,54.08
2018-05-13T11:31:39.716Z,52.69
2018-05-13T11:33:41.299Z,52.76
2018-05-13T11:35:42.983Z,54.90
2018-05-13T11:37:44.756Z,56.36
2018-05-13T11:39:46.471Z,52.47
2018-05-13T11:41:48.295Z,54.61
2018-05-13T11:43:50.053Z,55.68
2018-05-13T11:45:51.889Z,53.32
2018-05-13T11:47:53.638Z,55.98
2018-05-13T11:49:55.472Z,54.42
2018-05-13T11:51:57.137Z,53.45
2018-05-13T11:53:58.927Z,54.64
2018-05-13T11:56:00.654Z,56.68
2018-05-13T11:58:02.336Z,55.32
2018-05-13T12:00:04.111Z,55.54
2018-05-13T12:02:05.797Z,56.90
2018-05-13T12:04:07.541Z,53.89
2018-05-13T12:06:09.093Z,54.89
2018-05-13T12:08:10.921Z,52.62
2018-05-13T12:10:12.704Z,52.84
2018-05-13T12:12:14.544Z,54.30
2018-05-13T12:14:16.304Z,55.05
2018-05-13T12:16:17.796Z,54.38
2018-05-13T12:18:19.510Z,53.50
2018-05-13T12:20:21.456Z,53.25
2018-05-13T12:22:23.173Z,55.17
2018-05-13T12:24:24.974Z,53.91
2018-05-13T12:26:26.739Z,57.31
2018-05-13T12:28:28.570Z,59.03
2018-05-13T12:30:30.093Z,59.31
2018-05-13T12:32:31.774Z,58.83
2018-05-13T12:34:33.476Z,59.31
2018-05-13T12:36:35.240Z,58.05
2018-05-13T12:38:37.140Z,57.51
2018-05-13T12:40:38.939Z,59.64
2018-05-13T12:42:40.702Z,59.74
2018-05-13T12:44:42.254Z,58.84
2018-05-13T12:46:43.742Z,60.27
2018-05-13T12:48:45.254Z,61.52
2018-05-13T12:50:46.772Z,62.17
2018-05-13T12:52:48.685Z,63.01
2018-05-13T12:54:51.204Z,63.21
2018-05-13T12:56:53.674Z,64.62
2018-05-13T12:58:55.183Z,64.04
2018-05-13T13:00:56.848Z,64.79
2018-05-13T13:02:58.668Z,65.66
2018-05-13T13:05:00.394Z,65.53
2018-05-13T13:07:01.850Z,65.72
2018-05-13T13:09:03.607Z,65.62
2018-05-13T13:11:05.279Z,65.53
2018-05-13T13:13:07.070Z,65.62
2018-05-13T13:15:08.898Z,66.56
2018-05-13T13:17:11.560Z,67.24
2018-05-13T13:19:13.216Z,67.17
2018-05-13T13:21:15.057Z,66.78
2018-05-13T13:23:16.972Z,66.14
2018-05-13T13:25:19.040Z,66.14
2018-05-13T13:27:20.810Z,66.59
2018-05-13T13:29:22.559Z,67.27
2018-05-13T13:31:24.951Z,67.36
2018-05-13T13:33:26.535Z,68.10
2018-05-13T13:35:28.219Z,68.36
2018-05-13T13:37:29.777Z,68.55
2018-05-13T13:39:31.331Z,68.71
2018-05-13T13:41:33.217Z,68.77
2018-05-13T13:43:34.628Z,68.49
2018-05-13T13:45:36.616Z,69.64
2018-05-13T13:47:38.825Z,69.07
2018-05-13T13:49:40.575Z,68.97
2018-05-13T13:51:42.215Z,69.51
2018-05-13T13:53:43.771Z,68.90
2018-05-13T13:55:45.624Z,70.73
2018-05-13T13:57:47.455Z,76.18
2018-05-13T13:59:49.153Z,79.03
2018-05-13T14:01:50.794Z,81.16
2018-05-13T14:03:52.606Z,81.63
2018-05-13T14:05:54.083Z,80.68
2018-05-13T14:07:55.835Z,79.85
2018-05-13T14:09:57.672Z,81.77
2018-05-13T14:11:59.453Z,82.29
2018-05-13T14:14:01.778Z,81.14
2018-05-13T14:16:04.127Z,80.85
2018-05-13T14:18:06.465Z,82.20
2018-05-13T14:20:08.091Z,81.58
2018-05-13T14:22:10.197Z,82.89
2018-05-13T14:24:11.754Z,83.85
2018-05-13T14:26:13.246Z,85.35
2018-05-13T14:28:14.927Z,85.83
2018-05-13T14:30:17.061Z,85.78
2018-05-13T14:32:18.784Z,84.23
2018-05-13T14:34:20.486Z,83.66
2018-05-13T14:36:22.310Z,84.23
2018-05-13T14:38:23.986Z,85.06
2018-05-13T14:40:25.755Z,86.36
2018-05-13T14:42:27.528Z,87.33
2018-05-13T14:44:29.205Z,88.53
2018-05-13T14:46:30.896Z,90.12
2018-05-13T14:48:32.692Z,90.41
2018-05-13T14:50:34.407Z,91.18
2018-05-13T14:52:36.106Z,91.08
2018-05-13T14:54:37.867Z,91.66
2018-05-13T14:56:39.540Z,91.81
2018-05-13T14:58:41.326Z,92.10
2018-05-13T15:00:43.031Z,90.56
2018-05-13T15:02:44.994Z,90.84
2018-05-13T15:04:46.564Z,91.75
2018-05-13T15:06:48.193Z,91.56
2018-05-13T15:08:50.973Z,92.24
2018-05-13T15:10:52.874Z,92.19
2018-05-13T15:12:54.580Z,92.67
2018-05-13T15:14:56.698Z,93.05
2018-05-13T15:16:58.735Z,92.67
2018-05-13T15:19:00.468Z,92.38
2018-05-13T15:21:01.941Z,92.29
2018-05-13T15:23:03.704Z,90.94
2018-05-13T15:25:05.990Z,91.04
2018-05-13T15:27:07.406Z,92.33
2018-05-13T15:29:09.748Z,92.19
2018-05-13T15:31:12.005Z,90.99
2018-05-13T15:33:13.731Z,91.04
2018-05-13T15:35:15.542Z,89.89
2018-05-13T15:37:17.029Z,88.73
2018-05-13T15:39:19.258Z,87.96
2018-05-13T15:41:20.970Z,88.64
2018-05-13T15:43:22.474Z,87.96
2018-05-13T15:45:24.723Z,88.01
2018-05-13T15:47:26.184Z,87.24
2018-05-13T15:49:27.854Z,86.61
2018-05-13T15:51:30.280Z,86.32
2018-05-13T15:53:32.083Z,85.55
2018-05-13T15:55:34.512Z,84.83
2018-05-13T15:57:36.739Z,84.34
2018-05-13T15:59:38.406Z,83.58
2018-05-13T16:01:41.700Z,83.19
2018-05-13T16:03:44.079Z,82.81
2018-05-13T16:05:46.346Z,81.84
2018-05-13T16:07:48.690Z,80.21
2018-05-13T16:09:50.441Z,81.07
2018-05-13T16:11:52.758Z,83.58
2018-05-13T16:13:55.290Z,84.16
2018-05-13T16:15:57.627Z,83.19
2018-05-13T16:17:59.373Z,81.75
2018-05-13T16:20:01.197Z,81.65
2018-05-13T16:22:02.987Z,82.04
2018-05-13T16:24:04.488Z,81.37
2018-05-13T16:26:06.841Z,81.75
2018-05-13T16:28:08.548Z,81.17
2018-05-13T16:30:10.943Z,83.00
2018-05-13T16:32:12.653Z,82.32
2018-05-13T16:34:14.396Z,82.14
2018-05-13T16:36:16.048Z,81.27
2018-05-13T16:38:58.765Z,81.46
2018-05-13T16:41:00.158Z,81.70
2018-05-13T16:43:02.523Z,81.65
2018-05-13T16:45:03.946Z,81.60
2018-05-13T16:47:05.373Z,80.88
2018-05-13T16:49:07.729Z,80.79
2018-05-13T16:51:09.911Z,80.02
2018-05-13T16:53:11.666Z,81.07
2018-05-13T16:55:12.978Z,80.88
2018-05-13T16:57:14.521Z,81.27
2018-05-13T16:59:17.016Z,81.37
2018-05-13T17:01:19.322Z,81.30
2018-05-13T17:03:21.487Z,81.07
2018-05-13T17:05:23.053Z,80.02
2018-05-13T17:07:24.485Z,80.30
2018-05-13T17:09:26.305Z,80.50
2018-05-13T17:11:27.624Z,80.60
2018-05-13T17:13:30.060Z,80.30
2018-05-13T17:15:31.764Z,80.69
2018-05-13T17:17:33.476Z,80.79
2018-05-13T17:19:35.507Z,80.69
2018-05-13T17:21:37.091Z,80.79
2018-05-13T17:23:38.953Z,80.60
2018-05-13T17:25:41.129Z,80.50
2018-05-13T17:27:42.639Z,80.79
2018-05-13T17:29:44.378Z,80.60
2018-05-13T17:31:46.044Z,80.27
2018-05-13T17:33:47.557Z,80.75
2018-05-13T17:35:49.142Z,81.04
2018-05-13T17:37:50.843Z,80.55
2018-05-13T17:39:52.596Z,81.61
2018-05-13T17:41:54.347Z,81.61
2018-05-13T17:43:56.124Z,81.23
2018-05-13T17:45:57.630Z,81.32
2018-05-13T17:47:59.127Z,81.71
2018-05-13T17:50:00.740Z,81.90
2018-05-13T17:52:02.877Z,81.84
2018-05-13T17:54:04.578Z,80.75
2018-05-13T17:56:06.245Z,81.71
2018-05-13T17:58:07.902Z,81.42
2018-05-13T18:00:09.698Z,81.90
2018-05-13T18:02:12.193Z,81.81
2018-05-13T18:04:13.671Z,81.71
2018-05-13T18:06:15.496Z,81.94
2018-05-13T18:08:17.239Z,81.04
2018-05-13T18:10:19.014Z,81.23
2018-05-13T18:12:20.515Z,81.61
2018-05-13T18:14:22.018Z,81.42
2018-05-13T18:16:23.705Z,81.90
2018-05-13T18:18:25.498Z,81.81
2018-05-13T18:20:27.266Z,82.19
2018-05-13T18:22:29.177Z,82.19
2018-05-13T18:24:30.917Z,82.38
2018-05-13T18:26:32.359Z,82.29
2018-05-13T18:28:34.129Z,82.96
2018-05-13T18:30:35.636Z,82.96
2018-05-13T18:32:37.244Z,82.43
2018-05-13T18:34:38.928Z,83.34
2018-05-13T18:36:40.418Z,83.87
2018-05-13T18:38:42.728Z,83.34
2018-05-13T18:40:44.418Z,82.82
2018-05-13T18:42:46.279Z,82.63
2018-05-13T18:44:47.820Z,83.97
2018-05-13T18:46:49.430Z,84.36
2018-05-13T18:48:51.854Z,84.64
2018-05-13T18:50:53.287Z,83.59
2018-05-13T18:52:55.012Z,83.01
2018-05-13T18:54:56.560Z,83.16
2018-05-13T18:56:58.052Z,83.93
2018-05-13T18:58:59.799Z,84.70
2018-05-13T19:01:01.406Z,84.03
2018-05-13T19:03:03.840Z,84.89
2018-05-13T19:05:05.412Z,84.80
2018-05-13T19:07:07.104Z,84.22
2018-05-13T19:09:08.910Z,84.89
2018-05-13T19:11:10.439Z,84.70
2018-05-13T19:13:11.932Z,84.31
2018-05-13T19:15:14.417Z,84.51
2018-05-13T19:17:16.723Z,84.66
2018-05-13T19:19:18.934Z,84.85
2018-05-13T19:21:21.131Z,85.81
2018-05-13T19:23:22.932Z,85.37
2018-05-13T19:25:24.406Z,85.95
2018-05-13T19:27:26.795Z,85.37
2018-05-13T19:29:28.597Z,84.22
2018-05-13T19:31:30.460Z,85.03
2018-05-13T19:33:32.138Z,84.94
2018-05-13T19:35:34.455Z,84.22
2018-05-13T19:37:36.706Z,83.74
2018-05-13T19:39:38.471Z,84.80
2018-05-13T19:41:40.118Z,84.60
2018-05-13T19:43:41.796Z,84.12
2018-05-13T19:45:43.297Z,85.28
2018-05-13T19:47:44.730Z,85.57
2018-05-13T19:49:46.161Z,85.41
2018-05-13T19:51:47.881Z,84.74
2018-05-13T19:53:49.403Z,84.94
2018-05-13T19:55:51.795Z,84.74
2018-05-13T19:57:53.547Z,85.03
2018-05-13T19:59:55.037Z,84.74
2018-05-13T20:01:56.457Z,85.03
2018-05-13T20:03:57.967Z,84.94
2018-05-13T20:06:00.589Z,85.03
2018-05-13T20:08:02.082Z,84.55
2018-05-13T20:10:03.963Z,84.45
2018-05-13T20:12:05.754Z,84.36
2018-05-13T20:14:07.389Z,84.45
2018-05-13T20:16:09.062Z,85.08
2018-05-13T20:18:10.695Z,85.18
2018-05-13T20:20:13.323Z,84.99
2018-05-13T20:22:15.792Z,85.22
2018-05-13T20:24:17.319Z,85.18
2018-05-13T20:26:19.804Z,85.61
2018-05-13T20:28:22.379Z,85.61
2018-05-13T20:30:23.962Z,85.41
2018-05-13T20:32:25.723Z,85.80
2018-05-13T20:34:27.532Z,85.61
2018-05-13T20:36:29.317Z,85.32
2018-05-13T20:38:31.002Z,85.41
2018-05-13T20:40:32.694Z,85.89
2018-05-13T20:42:34.271Z,85.99
2018-05-13T20:44:35.740Z,86.47
2018-05-13T20:46:38.099Z,86.47
2018-05-13T20:48:39.776Z,86.47
2018-05-13T20:50:41.291Z,86.47
2018-05-13T20:52:43.014Z,85.80
2018-05-13T20:54:44.669Z,85.47
2018-05-13T20:56:46.394Z,87.49
2018-05-13T20:58:48.746Z,88.06
2018-05-13T21:00:50.471Z,87.87
2018-05-13T21:02:53.028Z,88.40
2018-05-13T21:04:54.574Z,88.93
2018-05-13T21:06:56.314Z,89.02
2018-05-13T21:08:57.818Z,89.12
2018-05-13T21:10:59.549Z,88.25
2018-05-13T21:13:02.080Z,88.25
2018-05-13T21:15:03.732Z,87.96
2018-05-13T21:17:05.203Z,87.87
2018-05-13T21:19:07.607Z,87.96
2018-05-13T21:21:09.982Z,87.29
2018-05-13T21:23:11.790Z,87.19
2018-05-13T21:25:13.305Z,87.96
2018-05-13T21:27:14.962Z,87.29
2018-05-13T21:29:16.697Z,88.06
2018-05-13T21:31:18.542Z,89.22
2018-05-13T21:33:20.327Z,89.02
2018-05-13T21:35:22.151Z,88.64
2018-05-13T21:37:23.965Z,88.93
2018-05-13T21:39:26.520Z,88.83
2018-05-13T21:41:28.214Z,88.25
2018-05-13T21:43:29.912Z,88.06
2018-05-13T21:45:31.540Z,87.96
2018-05-13T21:47:33.299Z,89.02
2018-05-13T21:49:34.836Z,88.25
2018-05-13T21:51:36.566Z,88.45
2018-05-13T21:53:39.050Z,87.58
2018-05-13T21:55:40.883Z,88.45
2018-05-13T21:57:43.275Z,89.55
2018-05-13T21:59:45.745Z,90.03
2018-05-13T22:01:47.230Z,90.13
2018-05-13T22:03:49.002Z,91.28
2018-05-13T22:05:50.865Z,91.09
2018-05-13T22:07:52.367Z,90.32
2018-05-13T22:09:54.817Z,90.13
2018-05-13T22:11:56.296Z,90.70
2018-05-13T22:13:57.886Z,90.32
2018-05-13T22:15:59.383Z,90.99
2018-05-13T22:18:00.875Z,91.62
2018-05-13T22:20:02.392Z,92.68
2018-05-13T22:22:04.166Z,92.77
2018-05-13T22:24:05.902Z,92.72
2018-05-13T22:26:08.259Z,92.72
2018-05-13T22:28:10.560Z,92.05
2018-05-13T22:30:12.794Z,90.90
2018-05-13T22:32:14.337Z,91.33
2018-05-13T22:34:15.853Z,90.66
2018-05-13T22:36:17.629Z,90.75
2018-05-13T22:39:00.054Z,90.46
2018-05-13T22:41:01.478Z,90.37
2018-05-13T22:43:02.988Z,90.08
2018-05-13T22:45:04.543Z,90.37
2018-05-13T22:47:06.732Z,89.40
2018-05-13T22:49:08.099Z,89.60
2018-05-13T22:51:09.521Z,89.22
2018-05-13T22:53:11.143Z,89.60
2018-05-13T22:55:12.753Z,89.50
2018-05-13T22:57:15.108Z,89.02
2018-05-13T22:59:16.621Z,89.12
2018-05-13T23:01:18.305Z,89.02
2018-05-13T23:03:20.590Z,89.12
2018-05-13T23:05:22.216Z,89.50
2018-05-13T23:07:23.692Z,89.40
2018-05-13T23:09:26.048Z,89.69
2018-05-13T23:11:27.571Z,89.22
2018-05-13T23:13:29.835Z,89.79
2018-05-13T23:15:31.493Z,89.40
2018-05-13T23:17:32.989Z,88.93
2018-05-13T23:19:35.393Z,88.45
2018-05-13T23:21:37.081Z,89.22
2018-05-13T23:23:38.749Z,89.12
2018-05-13T23:25:41.043Z,89.79
2018-05-13T23:27:42.583Z,89.02
2018-05-13T23:29:44.262Z,89.69
2018-05-13T23:31:46.777Z,89.98
2018-05-13T23:33:49.043Z,89.98
2018-05-13T23:35:50.443Z,90.66
2018-05-13T23:37:51.961Z,90.66
2018-05-13T23:39:53.622Z,90.37
2018-05-13T23:41:55.950Z,90.37
2018-05-13T23:43:57.530Z,90.75
2018-05-13T23:45:59.959Z,90.46
2018-05-13T23:48:01.568Z,90.75
2018-05-13T23:50:03.268Z,90.84
2018-05-13T23:52:04.789Z,90.66
2018-05-13T23:54:06.358Z,90.75
2018-05-13T23:56:08.152Z,90.75
2018-05-13T23:58:09.918Z,90.66
